Latest Weather Observations for Launceston Airport

IDT60801

Issued at 12:21 pm EST Saturday 25 May 2024 (issued every 10 minutes, with the page automatically refreshed every 10 minutes)

About weather observations | Map of weather stations | Latest weather observations for TAS | Other Formats
Station Details ID: 091311 Name: LAUNCESTON AIRPORT Lat: -41.55 Lon: 147.22 Height: 166.9 m
Data from the previous 72 hours. | See also: Recent months at Launceston Airport
Date/Time
EST
Temp
°C
App
Temp
°C
Dew
Point
°C
Rel
Hum
%
Delta-T
°C
Wind Press
QNH
hPa
Press
MSL
hPa
Rain since
9am
mm
Dir  Spd
km/h
Gust
km/h
Spd
kts
Gust
kts
25/12:00pm 10.5 8.2 5.5 71 2.3 SE 7 11 4 6 1029.8 1030.1 0.0
25/11:30am 9.5 7.1 5.3 75 1.9 SSE 7 11 4 6 1030.4 1030.7 0.0
25/11:00am 8.1 5.2 4.7 79 1.5 S 9 13 5 7 1030.7 1031.0 0.0
25/10:30am 7.0 4.1 4.7 85 1.0 SE 9 11 5 6 1030.8 1031.1 0.0
25/10:00am 6.1 3.6 4.7 91 0.6 SSE 7 11 4 6 1031.0 1031.3 0.0
25/09:30am 5.5 2.6 4.6 94 0.4 SSE 9 13 5 7 1031.0 1031.3 0.0
25/09:00am 4.9 1.5 4.0 94 0.4 SSW 11 15 6 8 1031.0 1031.3 -
25/08:30am 4.6 0.8 3.9 95 0.3 S 13 15 7 8 1030.9 1031.2 -
25/08:00am 3.8 0.2 3.2 96 0.2 S 11 13 6 7 1030.6 1030.9 -
25/07:30am 3.8 1.0 3.1 95 0.3 SSE 7 9 4 5 1030.5 1030.8 -
25/07:00am 4.3 1.2 3.7 96 0.2 S 9 13 5 7 1030.3 1030.6 -
25/06:30am 4.3 0.8 3.7 96 0.3 SSW 11 13 6 7 1030.1 1030.4 -
25/06:00am 4.5 1.1 3.8 95 0.3 SW 11 15 6 8 1029.9 1030.2 -
25/05:30am 4.7 0.9 4.1 96 0.3 SSW 13 15 7 8 1029.7 1030.0 -
25/05:00am 4.4 1.6 3.2 92 0.5 SW 7 7 4 4 1029.6 1029.9 -
25/04:30am 5.9 4.8 5.0 94 0.4 CALM 0 0 0 0 1029.6 1029.9 -
25/04:00am 6.2 4.0 5.3 94 0.4 SSE 6 7 3 4 1029.8 1030.1 -
25/03:30am 6.2 3.4 5.2 93 0.4 SSE 9 9 5 5 1030.1 1030.4 -
25/03:00am 6.6 4.4 5.4 92 0.5 SE 6 7 3 4 1030.4 1030.7 0.0
25/02:30am 6.7 5.6 5.3 91 0.6 CALM 0 0 0 0 1030.5 1030.8 -
25/02:00am 7.1 4.8 5.6 90 0.7 ESE 7 9 4 5 1030.6 1030.9 -
25/01:30am 7.3 4.6 5.4 88 0.9 S 9 9 5 5 1030.5 1030.8 -
25/01:00am 7.3 4.6 5.6 89 0.8 SSW 9 11 5 6 1030.5 1030.8 -
25/12:30am 7.1 4.7 5.4 89 0.8 SSW 7 9 4 5 1030.5 1030.8 -
25/12:00am 7.1 4.4 5.4 89 0.8 SW 9 11 5 6 1030.6 1030.9 -
 
Date/Time
EST
Temp
°C
App
Temp
°C
Dew
Point
°C
Rel
Hum
%
Delta-T
°C
Wind Press
QNH
hPa
Press
MSL
hPa
Rain since
9am
mm
Dir  Spd
km/h
Gust
km/h
Spd
kts
Gust
kts
24/11:30pm 7.7 5.4 5.7 87 0.9 SSW 7 9 4 5 1030.5 1030.8 -
24/11:00pm 7.9 5.6 5.9 87 0.9 SSW 7 11 4 6 1030.5 1030.8 -
24/10:30pm 8.1 5.1 6.1 87 0.9 SSW 11 13 6 7 1030.5 1030.8 -
24/10:00pm 8.2 5.6 6.0 86 1.0 SSW 9 11 5 6 1030.5 1030.8 -
24/09:30pm 8.2 5.2 6.2 87 0.9 SSW 11 13 6 7 1030.5 1030.8 -
24/09:00pm 7.7 5.0 5.8 88 0.9 S 9 13 5 7 1030.5 1030.8 0.0
24/08:30pm 8.1 5.4 5.7 85 1.1 S 9 13 5 7 1030.4 1030.7 -
24/08:00pm 8.5 5.1 6.0 84 1.1 SSE 13 17 7 9 1030.3 1030.6 -
24/07:30pm 9.1 6.6 6.4 83 1.3 SSE 9 13 5 7 1030.2 1030.5 -
24/07:00pm 8.9 5.6 6.2 83 1.2 SE 13 17 7 9 1029.9 1030.2 -
24/06:30pm 9.3 6.0 6.4 82 1.4 SSE 13 17 7 9 1029.7 1030.0 -
24/06:00pm 9.6 5.9 6.1 79 1.6 SE 15 20 8 11 1029.6 1029.9 -
24/05:30pm 10.0 5.5 6.0 76 1.9 SSE 19 22 10 12 1029.3 1029.6 -
24/05:00pm 10.1 6.3 5.9 75 1.9 SSE 15 19 8 10 1029.2 1029.5 -
24/04:30pm 10.7 6.5 5.9 72 2.2 SE 17 20 9 11 1029.1 1029.4 -
24/04:00pm 11.2 7.0 5.9 70 2.5 SSE 17 22 9 12 1029.0 1029.3 -
24/03:30pm 11.2 6.5 6.1 71 2.4 SSE 20 24 11 13 1029.0 1029.3 -
24/03:00pm 12.1 7.5 6.4 68 2.7 SSE 20 24 11 13 1029.0 1029.3 -
24/02:30pm 12.3 7.8 6.8 69 2.7 SSE 20 24 11 13 1029.0 1029.3 -
24/02:00pm 12.2 7.2 6.5 68 2.7 SSE 22 28 12 15 1028.9 1029.2 -
24/01:30pm 12.1 7.2 7.0 71 2.5 SSE 22 28 12 15 1029.1 1029.4 -
24/01:00pm 11.9 7.0 7.0 72 2.3 SSE 22 28 12 15 1029.3 1029.6 -
24/12:30pm 11.6 6.7 6.7 72 2.3 SSE 22 28 12 15 1029.4 1029.7 -
24/12:00pm 11.2 6.3 6.7 74 2.1 SSE 22 28 12 15 1029.5 1029.8 -
24/11:30am 10.9 6.3 6.6 75 2.0 SSE 20 28 11 15 1029.8 1030.1 -
24/11:00am 10.3 5.3 6.5 77 1.8 SSE 22 33 12 18 1030.1 1030.4 0.0
24/10:30am 9.7 3.6 6.6 81 1.5 SSE 28 35 15 19 1030.1 1030.4 0.0
24/10:00am 9.2 3.7 6.1 81 1.4 SSE 24 32 13 17 1030.2 1030.5 0.0
24/09:30am 8.6 3.9 6.2 85 1.1 SSE 20 30 11 16 1030.1 1030.4 0.0
24/09:00am 7.5 2.9 5.5 87 0.9 SSE 19 24 10 13 1029.9 1030.2 8.2
24/08:30am 6.5 2.9 5.1 91 0.6 SSE 13 15 7 8 1029.7 1030.0 8.2
24/08:00am 5.6 1.5 4.4 92 0.5 SSE 15 19 8 10 1029.4 1029.7 8.2
24/07:30am 5.2 -0.3 4.2 93 0.4 SSE 22 28 12 15 1029.1 1029.4 8.2
24/07:00am 5.2 0.3 4.2 93 0.4 S 19 28 10 15 1029.1 1029.4 8.2
24/06:30am 5.3 0.5 4.4 94 0.4 SSE 19 24 10 13 1028.7 1029.0 8.2
24/06:00am 4.9 0.0 4.2 95 0.3 SSE 19 22 10 12 1028.5 1028.8 8.2
24/05:30am 4.8 0.6 3.9 94 0.4 SSE 15 17 8 9 1028.2 1028.5 8.2
24/05:00am 5.4 0.9 4.4 93 0.4 SSE 17 20 9 11 1028.0 1028.3 8.2
24/04:30am 5.7 1.3 4.5 92 0.5 SSE 17 20 9 11 1027.8 1028.1 8.2
24/04:00am 6.4 2.0 4.9 90 0.7 SSE 17 20 9 11 1027.7 1028.0 8.2
24/03:30am 6.7 2.0 5.0 89 0.8 S 19 22 10 12 1027.9 1028.2 8.2
24/03:00am 6.9 2.0 5.2 89 0.8 SSE 20 30 11 16 1027.6 1027.9 8.2
24/02:30am 7.2 1.6 5.3 88 0.9 S 24 30 13 16 1027.5 1027.8 8.2
24/02:00am 7.3 1.3 5.4 88 0.8 SSE 26 35 14 19 1027.1 1027.3 8.2
24/01:30am 7.5 1.6 5.8 89 0.8 SSE 26 32 14 17 1027.3 1027.5 8.2
24/01:00am 7.6 1.0 5.9 89 0.8 SSE 30 39 16 21 1027.0 1027.2 8.2
24/12:30am 7.6 1.0 6.1 90 0.7 SSE 30 39 16 21 1027.0 1027.2 8.2
24/12:00am 7.4 1.6 6.2 92 0.5 SSE 26 35 14 19 1026.9 1027.1 8.2
 
Date/Time
EST
Temp
°C
App
Temp
°C
Dew
Point
°C
Rel
Hum
%
Delta-T
°C
Wind Press
QNH
hPa
Press
MSL
hPa
Rain since
9am
mm
Dir  Spd
km/h
Gust
km/h
Spd
kts
Gust
kts
23/11:30pm 7.4 2.1 6.7 95 0.3 S 24 32 13 17 1026.7 1026.9 8.2
23/11:00pm 7.6 1.5 6.7 94 0.4 SE 28 37 15 20 1026.1 1026.3 7.8
23/10:30pm 8.0 2.0 7.1 94 0.4 SSE 28 35 15 19 1026.3 1026.5 7.0
23/10:00pm 8.3 1.0 7.2 93 0.5 SSE 35 44 19 24 1026.0 1026.2 6.2
23/09:55pm 8.3 1.4 7.2 93 0.5 SSE 33 44 18 24 1025.9 1026.1 6.2
23/09:30pm 8.6 2.0 7.7 94 0.4 SSE 32 44 17 24 1025.6 1025.8 6.2
23/09:00pm 8.7 2.9 7.9 95 0.4 SSE 28 39 15 21 1025.2 1025.5 6.0
23/08:49pm 8.9 3.1 8.0 94 0.4 SSE 28 35 15 19 1025.1 1025.4 6.0
23/08:30pm 9.1 3.4 8.2 94 0.4 SSE 28 37 15 20 1025.0 1025.3 5.6
23/08:09pm 9.3 4.8 8.4 94 0.4 SSE 22 32 12 17 1024.9 1025.2 3.4
23/08:00pm 9.4 4.5 8.3 93 0.5 SSE 24 35 13 19 1024.8 1025.1 2.4
23/07:30pm 9.9 5.2 9.1 95 0.4 SSE 24 32 13 17 1024.6 1024.9 1.6
23/07:00pm 10.6 7.4 10.0 96 0.3 SSE 17 28 9 15 1024.6 1024.9 1.6
23/06:30pm 11.0 9.5 10.4 96 0.3 ENE 9 11 5 6 1024.4 1024.7 1.6
23/06:00pm 10.9 8.6 10.4 97 0.3 SE 13 17 7 9 1024.4 1024.7 1.6
23/05:54pm 10.9 8.6 10.4 97 0.3 SE 13 17 7 9 1024.4 1024.7 1.6
23/05:35pm 10.9 8.2 10.4 97 0.3 SE 15 20 8 11 1024.2 1024.5 1.4
23/05:30pm 11.0 7.9 10.4 96 0.3 SSE 17 20 9 11 1024.2 1024.5 1.4
23/05:00pm 11.5 9.2 10.6 94 0.5 S 13 17 7 9 1024.1 1024.4 0.2
23/04:47pm 12.1 10.1 10.3 89 0.9 S 11 17 6 9 1024.0 1024.3 0.0
23/04:30pm 14.0 11.8 9.4 74 2.4 NW 11 13 6 7 1023.7 1024.0 0.0
23/04:00pm 14.4 13.6 9.6 73 2.5 N 4 9 2 5 1023.4 1023.7 0.0
23/03:30pm 14.6 14.5 9.4 71 2.7 CALM 0 2 0 1 1023.4 1023.7 0.0
23/03:00pm 14.7 14.1 9.1 69 2.9 N 2 7 1 4 1023.4 1023.7 0.0
23/02:30pm 14.5 12.9 8.9 69 2.9 NNE 7 9 4 5 1023.4 1023.7 0.0
23/02:00pm 14.7 12.8 8.9 68 3.0 N 9 11 5 6 1023.6 1023.9 0.0
23/01:30pm 14.7 12.4 8.9 68 3.0 NNW 11 17 6 9 1023.8 1024.1 0.0
23/01:00pm 14.6 11.4 8.5 67 3.1 N 15 20 8 11 1023.8 1024.1 0.0
23/12:30pm 14.4 10.7 7.9 65 3.3 N 17 22 9 12 1024.0 1024.3 0.0
23/12:00pm 13.5 10.5 7.5 67 2.9 NNW 13 19 7 10 1024.3 1024.6 0.0
23/11:30am 12.6 8.8 7.5 71 2.5 N 17 22 9 12 1024.5 1024.8 0.0
23/11:00am 11.8 8.3 7.3 74 2.2 NNW 15 20 8 11 1024.8 1025.1 0.0
23/10:30am 10.3 7.3 7.5 83 1.4 N 13 15 7 8 1024.9 1025.2 0.0
23/10:00am 9.7 7.4 7.6 87 1.0 N 9 11 5 6 1025.0 1025.3 0.0
23/09:30am 9.0 7.2 7.0 87 0.9 N 6 7 3 4 1024.9 1025.2 0.0
23/09:00am 7.8 5.3 6.6 92 0.6 NNW 9 11 5 6 1024.8 1025.1 0.2
23/08:30am 7.2 4.8 6.9 98 0.1 NNW 9 11 5 6 1024.8 1025.1 0.2
23/08:16am 6.0 3.3 5.7 98 0.1 NNW 9 9 5 5 1024.8 1025.1 0.2
23/08:00am 4.6 2.0 4.3 98 0.1 N 7 9 4 5 1024.9 1025.2 0.2
23/07:50am 4.3 1.6 3.9 97 0.2 N 7 9 4 5 1024.7 1025.0 0.2
23/07:46am 4.2 1.5 3.8 97 0.2 N 7 9 4 5 1024.7 1025.0 0.2
23/07:43am 4.5 1.9 4.2 98 0.1 N 7 9 4 5 1024.6 1024.9 0.2
23/07:30am 4.0 1.3 3.6 97 0.2 N 7 7 4 4 1024.6 1024.9 0.2
23/07:16am 3.4 0.8 3.0 97 0.2 N 6 7 3 4 1024.5 1024.8 0.2
23/07:00am 4.8 2.3 4.5 98 0.1 N 7 9 4 5 1024.3 1024.6 0.2
23/06:37am 4.8 1.9 4.4 97 0.2 N 9 9 5 5 1024.3 1024.6 0.0
23/06:35am 4.8 1.9 4.5 98 0.1 N 9 9 5 5 1024.3 1024.6 0.0
23/06:30am 4.0 0.9 3.6 97 0.2 N 9 11 5 6 1024.3 1024.6 0.0
23/06:00am 3.9 0.4 3.5 97 0.2 NNW 11 11 6 6 1024.1 1024.4 0.0
23/05:51am 5.0 2.1 4.7 98 0.1 NNW 9 11 5 6 1023.9 1024.2 0.0
23/05:45am 4.9 2.0 4.6 98 0.1 NW 9 11 5 6 1023.9 1024.2 0.0
23/05:40am 4.9 2.4 4.6 98 0.1 NNW 7 11 4 6 1023.9 1024.2 0.0
23/05:30am 4.3 1.7 4.0 98 0.1 NNW 7 9 4 5 1023.8 1024.1 0.0
23/05:00am 3.2 0.0 2.8 97 0.2 N 9 11 5 6 1023.7 1024.0 0.0
23/04:59am 3.2 0.0 2.8 97 0.2 N 9 11 5 6 1023.6 1023.9 0.0
23/04:30am 3.0 -0.7 2.6 97 0.2 N 11 13 6 7 1023.6 1023.9 0.0
23/04:18am 3.7 -0.2 3.3 97 0.2 N 13 13 7 7 1023.5 1023.8 0.0
23/04:13am 4.1 0.3 3.7 97 0.2 N 13 15 7 8 1023.5 1023.8 0.0
23/04:09am 4.1 0.2 3.5 96 0.2 N 13 17 7 9 1023.5 1023.8 0.0
23/04:08am 4.2 0.4 3.8 97 0.2 N 13 17 7 9 1023.5 1023.8 0.0
23/04:00am 4.6 0.5 4.2 97 0.2 N 15 17 8 9 1023.5 1023.8 0.0
23/03:59am 4.6 0.5 4.2 97 0.2 N 15 17 8 9 1023.5 1023.8 0.0
23/03:46am 5.1 1.1 4.7 97 0.2 NNW 15 17 8 9 1023.5 1023.8 0.0
23/03:33am 4.8 0.7 4.4 97 0.2 NNW 15 17 8 9 1023.6 1023.9 0.0
23/03:30am 4.9 0.8 4.5 97 0.2 NNW 15 17 8 9 1023.6 1023.9 0.0
23/03:21am 5.0 1.3 4.6 97 0.2 NNW 13 15 7 8 1023.5 1023.8 0.0
23/03:00am 5.2 1.9 4.6 96 0.3 NNW 11 15 6 8 1023.5 1023.8 0.0
23/02:58am 5.3 1.7 4.9 97 0.2 NNW 13 15 7 8 1023.5 1023.8 0.0
23/02:55am 4.8 1.0 4.1 95 0.3 N 13 17 7 9 1023.5 1023.8 0.0
23/02:45am 5.4 1.4 4.7 95 0.3 N 15 15 8 8 1023.6 1023.9 0.0
23/02:30am 7.2 4.8 6.8 97 0.2 N 9 11 5 6 1023.6 1023.9 0.0
23/02:24am 6.9 4.3 6.3 96 0.3 N 9 9 5 5 1023.8 1024.1 0.0
23/02:02am 7.5 4.7 6.9 96 0.3 N 11 13 6 7 1023.8 1024.1 0.0
23/02:00am 7.6 4.8 7.0 96 0.3 N 11 13 6 7 1023.8 1024.1 0.0
23/01:58am 7.6 4.8 7.0 96 0.3 N 11 13 6 7 1023.7 1024.0 0.0
23/01:45am 8.0 5.3 7.2 95 0.4 NNE 11 13 6 7 1023.7 1024.0 0.0
23/01:40am 8.1 6.3 7.2 94 0.4 E 6 13 3 7 1023.8 1024.1 0.0
23/01:30am 8.8 8.1 6.8 87 0.9 CALM 0 0 0 0 1023.9 1024.2 0.0
23/01:00am 9.0 8.3 7.0 87 0.9 CALM 0 0 0 0 1023.8 1024.1 0.0
23/12:30am 9.9 6.9 6.1 77 1.8 SSW 11 13 6 7 1023.7 1024.0 0.0
23/12:00am 9.7 9.4 8.8 94 0.4 CALM 0 0 0 0 1023.8 1024.1 0.0
 
Date/Time
EST
Temp
°C
App
Temp
°C
Dew
Point
°C
Rel
Hum
%
Delta-T
°C
Wind Press
QNH
hPa
Press
MSL
hPa
Rain since
9am
mm
Dir  Spd
km/h
Gust
km/h
Spd
kts
Gust
kts
22/11:30pm 9.9 9.7 9.0 94 0.4 CALM 0 0 0 0 1023.7 1024.0 0.0
22/11:00pm 9.2 8.8 8.1 93 0.5 CALM 0 0 0 0 1023.6 1023.9 0.0
22/10:30pm 9.6 9.3 8.7 94 0.4 CALM 0 0 0 0 1023.7 1024.0 0.0
22/10:00pm 10.0 8.7 9.1 94 0.4 NW 6 7 3 4 1023.8 1024.1 0.0
22/09:30pm 9.8 8.4 8.9 94 0.4 NW 6 7 3 4 1023.8 1024.1 0.0
22/09:00pm 10.5 9.1 9.4 93 0.6 NW 7 9 4 5 1023.8 1024.1 0.0
22/08:30pm 10.3 8.7 8.9 91 0.7 NW 7 9 4 5 1023.9 1024.2 0.0
22/08:00pm 11.2 9.9 10.0 92 0.6 NNW 7 9 4 5 1023.9 1024.2 0.0
22/07:30pm 11.0 8.9 9.6 91 0.7 NNW 11 11 6 6 1024.0 1024.3 0.0
22/07:00pm 11.3 9.5 9.6 89 0.9 NNW 9 13 5 7 1023.8 1024.1 0.0
22/06:30pm 11.4 8.1 9.5 88 1.0 NNW 17 19 9 10 1023.6 1023.9 0.0
22/06:00pm 12.0 8.7 9.4 84 1.3 NNW 17 20 9 11 1023.6 1023.9 0.0
22/05:30pm 12.1 9.0 8.8 80 1.7 NW 15 19 8 10 1023.5 1023.8 0.0
22/05:00pm 12.7 9.6 8.8 77 2.0 NW 15 17 8 9 1023.4 1023.7 0.0
22/04:30pm 13.8 11.2 9.5 75 2.2 NNW 13 17 7 9 1023.2 1023.5 0.0
22/04:00pm 14.2 10.8 9.2 72 2.6 NNW 17 20 9 11 1023.3 1023.6 0.0
22/03:30pm 14.4 11.0 9.2 71 2.7 NNW 17 22 9 12 1023.3 1023.6 0.0
22/03:00pm 15.5 11.5 9.0 65 3.3 NNW 20 24 11 13 1023.3 1023.6 0.0
22/02:30pm 15.7 10.9 8.7 63 3.6 NNW 24 30 13 16 1023.3 1023.6 0.0
22/02:00pm 15.7 11.9 9.8 68 3.1 NNW 20 26 11 14 1023.3 1023.6 0.0
22/01:30pm 15.5 12.1 9.0 65 3.4 NNW 17 22 9 12 1023.7 1024.0 0.0
22/01:00pm 15.4 12.0 9.1 66 3.2 NW 17 22 9 12 1024.0 1024.3 0.0
22/12:30pm 15.2 12.6 9.3 68 3.1 NNW 13 17 7 9 1024.5 1024.8 0.0

Other formats

Comma delimited format used in spreadsheet applications
http://www.bom.gov.au/fwo/IDT60801/IDT60801.95966.axf

JavaScript Object Notation format (JSON) in row-major order
http://www.bom.gov.au/fwo/IDT60801/IDT60801.95966.json

Data quality

Most of these data are generated automatically and are frequently updated. Quality checks on data are not normally performed. It is possible for incorrect values to appear. Refer to information at About Latest Weather Observations and please check the disclaimer before using these data.